createdAt,value
2017-10-16T00:00:29.744Z,23.32
2017-10-16T00:01:10.194Z,23.33
2017-10-16T00:01:50.650Z,23.34
2017-10-16T00:02:31.110Z,23.29
2017-10-16T00:03:11.564Z,23.26
2017-10-16T00:03:52.024Z,23.26
2017-10-16T00:04:32.481Z,23.28
2017-10-16T00:05:12.928Z,23.32
2017-10-16T00:05:53.374Z,23.28
2017-10-16T00:06:33.828Z,23.32
2017-10-16T00:07:14.289Z,23.37
2017-10-16T00:07:54.738Z,23.26
2017-10-16T00:08:35.199Z,23.2
2017-10-16T00:09:15.660Z,23.28
2017-10-16T00:09:56.114Z,23.28
2017-10-16T00:10:36.576Z,23.2
2017-10-16T00:11:17.021Z,23.28
2017-10-16T00:11:57.472Z,23.29
2017-10-16T00:12:37.933Z,23.32
2017-10-16T00:13:18.386Z,23.23
2017-10-16T00:13:58.841Z,23.28
2017-10-16T00:14:39.297Z,23.26
2017-10-16T00:15:19.758Z,23.16
2017-10-16T00:16:00.217Z,23.26
2017-10-16T00:16:40.674Z,23.26
2017-10-16T00:17:21.120Z,23.28
2017-10-16T00:18:01.573Z,23.28
2017-10-16T00:18:42.042Z,23.25
2017-10-16T00:19:22.484Z,23.23
2017-10-16T00:20:02.942Z,23.2
2017-10-16T00:20:43.400Z,23.17
2017-10-16T00:21:23.852Z,23.32
2017-10-16T00:22:04.291Z,23.11
2017-10-16T00:22:44.786Z,23.21
2017-10-16T00:23:25.237Z,23.18
2017-10-16T00:24:05.704Z,23.23
2017-10-16T00:24:46.151Z,23.16
2017-10-16T00:25:26.606Z,23.25
2017-10-16T00:26:07.062Z,23.17
2017-10-16T00:26:47.513Z,23.07
2017-10-16T00:27:27.961Z,23.16
2017-10-16T00:28:08.415Z,23.14
2017-10-16T00:28:48.870Z,23.13
2017-10-16T00:29:29.321Z,23.17
2017-10-16T00:30:09.779Z,23.13
2017-10-16T00:30:50.229Z,23.16
2017-10-16T00:31:30.682Z,23.13
2017-10-16T00:32:11.138Z,23.13
2017-10-16T00:32:51.609Z,23.17
2017-10-16T00:33:32.054Z,23.16
2017-10-16T00:34:12.523Z,23.1
2017-10-16T00:34:52.980Z,23.11
2017-10-16T00:35:33.425Z,23.13
2017-10-16T00:36:13.874Z,23.17
2017-10-16T00:36:54.327Z,23.13
2017-10-16T00:37:34.784Z,23.16
2017-10-16T00:38:15.248Z,23.11
2017-10-16T00:38:55.710Z,23.16
2017-10-16T00:39:36.163Z,23.16
2017-10-16T00:40:16.619Z,23.14
2017-10-16T00:40:57.071Z,23.13
2017-10-16T00:41:37.525Z,23.14
2017-10-16T00:42:17.967Z,23.16
2017-10-16T00:42:58.420Z,23.1
2017-10-16T00:43:38.893Z,23.1
2017-10-16T00:44:19.328Z,23.13
2017-10-16T00:44:59.779Z,23.14
2017-10-16T00:45:40.225Z,23.11
2017-10-16T00:46:20.667Z,23.14
2017-10-16T00:47:01.113Z,23.16
2017-10-16T00:47:41.564Z,23.14
2017-10-16T00:48:22.020Z,23.1
2017-10-16T00:49:02.481Z,23.14
2017-10-16T00:49:43.030Z,23.14
2017-10-16T00:50:23.476Z,23.1
2017-10-16T00:51:03.940Z,23.16
2017-10-16T00:51:44.388Z,23.11
2017-10-16T00:52:24.848Z,23.16
2017-10-16T00:53:05.312Z,23.14
2017-10-16T00:53:45.768Z,23.1
2017-10-16T00:54:26.207Z,23.17
2017-10-16T00:55:06.697Z,23.13
2017-10-16T00:55:47.134Z,23.14
2017-10-16T00:56:27.567Z,23.18
2017-10-16T00:57:08.030Z,23.11
2017-10-16T00:57:48.482Z,23.14
2017-10-16T00:58:28.937Z,23.16
2017-10-16T00:59:09.386Z,23.14
2017-10-16T00:59:49.838Z,23.08
2017-10-16T01:00:30.295Z,23.13
2017-10-16T01:01:10.761Z,23.14
2017-10-16T01:01:51.214Z,23.13
2017-10-16T01:02:31.681Z,23.08
2017-10-16T01:03:12.134Z,23.11
2017-10-16T01:03:52.581Z,23.17
2017-10-16T01:04:33.034Z,23.18
2017-10-16T01:05:13.481Z,23.13
2017-10-16T01:05:53.928Z,23.16
2017-10-16T01:06:34.387Z,23.07
2017-10-16T01:07:14.833Z,23.11
2017-10-16T01:07:55.292Z,23.08
2017-10-16T01:08:35.743Z,23.13
2017-10-16T01:09:16.207Z,23.08
2017-10-16T01:09:56.666Z,23.11
2017-10-16T01:10:37.121Z,23.13
2017-10-16T01:11:17.580Z,23.08
2017-10-16T01:11:58.032Z,23.11
2017-10-16T01:12:38.479Z,23.11
2017-10-16T01:13:18.946Z,23.07
2017-10-16T01:13:59.397Z,23.02
2017-10-16T01:14:39.858Z,23.07
2017-10-16T01:15:20.314Z,23.1
2017-10-16T01:16:00.772Z,23.11
2017-10-16T01:16:41.222Z,23.04
2017-10-16T01:17:21.692Z,23.04
2017-10-16T01:18:02.143Z,23.06
2017-10-16T01:18:42.590Z,23.06
2017-10-16T01:19:23.050Z,23.02
2017-10-16T01:20:03.475Z,23.02
2017-10-16T01:20:43.921Z,22.99
2017-10-16T01:21:24.370Z,23.1
2017-10-16T01:22:04.820Z,23.01
2017-10-16T01:22:45.272Z,23.02
2017-10-16T01:23:25.729Z,23.01
2017-10-16T01:24:06.178Z,23.01
2017-10-16T01:24:46.648Z,22.99
2017-10-16T01:25:27.086Z,22.98
2017-10-16T01:26:07.534Z,22.98
2017-10-16T01:26:47.984Z,23.04
2017-10-16T01:27:28.461Z,23.07
2017-10-16T01:28:08.927Z,23.01
2017-10-16T01:28:49.394Z,23.06
2017-10-16T01:29:29.856Z,22.98
2017-10-16T01:30:10.303Z,23.01
2017-10-16T01:30:50.767Z,23.06
2017-10-16T01:31:31.223Z,22.99
2017-10-16T01:32:11.681Z,23.01
2017-10-16T01:32:52.138Z,23.01
2017-10-16T01:33:32.595Z,23.02
2017-10-16T01:34:13.056Z,23.06
2017-10-16T01:34:53.510Z,23.01
2017-10-16T01:35:33.955Z,23.04
2017-10-16T01:36:14.411Z,23.02
2017-10-16T01:36:54.857Z,23.02
2017-10-16T01:37:35.311Z,22.98
2017-10-16T01:38:15.751Z,23.02
2017-10-16T01:38:56.202Z,22.98
2017-10-16T01:39:36.652Z,23.04
2017-10-16T01:41:14.085Z,23.01
2017-10-16T01:41:54.536Z,23.04
2017-10-16T01:42:34.982Z,23.02
2017-10-16T01:43:15.432Z,22.96
2017-10-16T01:43:55.893Z,22.96
2017-10-16T01:44:36.352Z,22.99
2017-10-16T01:45:16.809Z,22.98
2017-10-16T01:45:57.266Z,22.96
2017-10-16T01:46:37.715Z,22.93
2017-10-16T01:47:18.168Z,22.99
2017-10-16T01:47:58.654Z,22.95
2017-10-16T01:48:39.084Z,23.04
2017-10-16T01:49:19.534Z,22.95
2017-10-16T01:49:59.984Z,22.95
2017-10-16T01:50:40.423Z,22.93
2017-10-16T01:51:20.865Z,22.98
2017-10-16T01:52:01.326Z,22.98
2017-10-16T01:52:41.777Z,22.96
2017-10-16T01:53:22.225Z,22.93
2017-10-16T01:54:02.691Z,22.96
2017-10-16T01:54:43.140Z,22.99
2017-10-16T01:55:23.586Z,22.96
2017-10-16T01:56:04.045Z,22.95
2017-10-16T01:56:44.506Z,22.99
2017-10-16T01:57:24.964Z,22.91
2017-10-16T01:58:05.420Z,22.93
2017-10-16T01:58:45.874Z,22.92
2017-10-16T01:59:26.349Z,22.96
2017-10-16T02:00:06.807Z,23.01
2017-10-16T02:00:47.267Z,22.89
2017-10-16T02:01:27.721Z,22.95
2017-10-16T02:02:08.172Z,22.88
2017-10-16T02:02:48.624Z,22.95
2017-10-16T02:03:29.065Z,22.93
2017-10-16T02:04:09.518Z,22.91
2017-10-16T02:04:49.974Z,22.89
2017-10-16T02:05:30.431Z,22.96
2017-10-16T02:06:10.890Z,22.93
2017-10-16T02:06:51.345Z,22.88
2017-10-16T02:07:31.797Z,22.92
2017-10-16T02:08:12.255Z,22.93
2017-10-16T02:08:52.713Z,22.96
2017-10-16T02:09:33.162Z,22.86
2017-10-16T02:10:13.612Z,22.93
2017-10-16T02:10:54.076Z,22.96
2017-10-16T02:11:34.520Z,22.91
2017-10-16T02:12:14.977Z,22.89
2017-10-16T02:12:55.431Z,22.93
2017-10-16T02:13:35.887Z,22.91
2017-10-16T02:14:16.324Z,22.88
2017-10-16T02:14:56.764Z,22.92
2017-10-16T02:15:37.222Z,22.88
2017-10-16T02:16:17.667Z,22.92
2017-10-16T02:16:58.123Z,22.88
2017-10-16T02:18:50.710Z,22.92
2017-10-16T02:19:31.175Z,22.84
2017-10-16T02:20:11.631Z,22.93
2017-10-16T02:20:52.095Z,22.92
2017-10-16T02:21:32.550Z,22.86
2017-10-16T02:22:12.990Z,22.91
2017-10-16T02:22:53.435Z,22.84
2017-10-16T02:23:33.890Z,22.88
2017-10-16T02:24:14.336Z,22.92
2017-10-16T02:24:54.784Z,22.91
2017-10-16T02:25:35.241Z,22.93
2017-10-16T02:26:15.691Z,22.95
2017-10-16T02:26:56.145Z,22.86
2017-10-16T02:27:36.597Z,22.84
2017-10-16T02:28:17.047Z,22.89
2017-10-16T02:28:57.510Z,22.78
2017-10-16T02:29:37.966Z,22.91
2017-10-16T02:30:18.413Z,22.84
2017-10-16T02:30:58.866Z,22.88
2017-10-16T02:31:39.322Z,22.83
2017-10-16T02:32:19.769Z,22.83
2017-10-16T02:33:00.215Z,22.81
2017-10-16T02:33:40.674Z,22.81
2017-10-16T02:34:21.127Z,22.86
2017-10-16T02:35:01.586Z,22.88
2017-10-16T02:35:42.081Z,22.88
2017-10-16T02:36:22.514Z,22.76
2017-10-16T02:37:02.955Z,22.81
2017-10-16T02:37:43.398Z,22.81
2017-10-16T02:38:23.849Z,22.84
2017-10-16T02:39:04.301Z,22.84
2017-10-16T02:39:44.751Z,22.81
2017-10-16T02:40:25.206Z,22.86
2017-10-16T02:41:05.656Z,22.84
2017-10-16T02:41:46.102Z,22.84
2017-10-16T02:42:26.558Z,22.84
2017-10-16T02:43:07.034Z,22.83
2017-10-16T02:43:47.487Z,22.83
2017-10-16T02:44:27.946Z,22.81
2017-10-16T02:45:08.403Z,22.78
2017-10-16T02:45:48.860Z,22.77
2017-10-16T02:46:29.318Z,22.78
2017-10-16T02:47:09.773Z,22.8
2017-10-16T02:47:50.227Z,22.83
2017-10-16T02:48:30.686Z,22.78
2017-10-16T02:49:11.147Z,22.78
2017-10-16T02:49:51.592Z,22.77
2017-10-16T02:50:32.056Z,22.8
2017-10-16T02:51:12.507Z,22.7
2017-10-16T02:51:52.971Z,22.8
2017-10-16T02:52:33.433Z,22.8
2017-10-16T02:53:13.892Z,22.83
2017-10-16T02:53:54.342Z,22.81
2017-10-16T02:54:34.795Z,22.83
2017-10-16T02:55:15.243Z,22.83
2017-10-16T02:55:55.693Z,22.77
2017-10-16T02:56:36.140Z,22.8
2017-10-16T02:57:16.590Z,22.81
2017-10-16T02:57:57.045Z,22.77
2017-10-16T02:58:37.497Z,22.84
2017-10-16T02:59:17.949Z,22.73
2017-10-16T02:59:58.399Z,22.8
2017-10-16T03:00:38.862Z,22.74
2017-10-16T03:01:19.317Z,22.74
2017-10-16T03:01:59.780Z,22.78
2017-10-16T03:02:40.230Z,22.8
2017-10-16T03:03:20.682Z,22.81
2017-10-16T03:04:01.128Z,22.71
2017-10-16T03:04:41.578Z,22.71
2017-10-16T03:05:22.036Z,22.77
2017-10-16T03:06:02.484Z,22.71
2017-10-16T03:06:42.933Z,22.74
2017-10-16T03:07:23.385Z,22.81
2017-10-16T03:08:03.847Z,22.83
2017-10-16T03:08:44.300Z,22.74
2017-10-16T03:09:24.751Z,22.71
2017-10-16T03:10:05.212Z,22.73
2017-10-16T03:10:45.662Z,22.76
2017-10-16T03:11:26.109Z,22.71
2017-10-16T03:12:06.597Z,22.77
2017-10-16T03:12:47.037Z,22.81
2017-10-16T03:13:27.497Z,22.76
2017-10-16T03:14:07.954Z,22.67
2017-10-16T03:14:48.404Z,22.76
2017-10-16T03:15:28.889Z,22.73
2017-10-16T03:16:09.321Z,22.76
2017-10-16T03:16:49.780Z,22.63
2017-10-16T03:17:30.229Z,22.73
2017-10-16T03:18:10.692Z,22.74
2017-10-16T03:18:51.171Z,22.76
2017-10-16T03:19:31.622Z,22.68
2017-10-16T03:20:12.426Z,22.74
2017-10-16T03:20:53.032Z,22.73
2017-10-16T03:21:34.992Z,22.74
2017-10-16T03:22:15.442Z,22.73
2017-10-16T03:22:55.899Z,22.68
2017-10-16T03:23:36.357Z,22.74
2017-10-16T03:24:16.802Z,22.74
2017-10-16T03:24:57.245Z,22.68
2017-10-16T03:25:37.690Z,22.71
2017-10-16T03:26:18.132Z,22.7
2017-10-16T03:26:58.601Z,22.67
2017-10-16T03:27:39.432Z,22.73
2017-10-16T03:28:21.147Z,22.71
2017-10-16T03:29:01.432Z,22.74
2017-10-16T03:29:41.893Z,22.76
2017-10-16T03:30:22.754Z,22.76
2017-10-16T03:31:03.715Z,22.73
2017-10-16T03:31:46.210Z,22.76
2017-10-16T03:32:27.674Z,22.73
2017-10-16T03:33:08.128Z,22.76
2017-10-16T03:33:48.576Z,22.71
2017-10-16T03:34:29.044Z,22.76
2017-10-16T03:35:10.025Z,22.73
2017-10-16T03:35:50.484Z,22.84
2017-10-16T03:36:30.940Z,22.83
2017-10-16T03:37:11.369Z,22.77
2017-10-16T03:37:51.782Z,22.77
2017-10-16T03:38:32.212Z,22.76
2017-10-16T03:39:12.725Z,22.77
2017-10-16T03:39:53.179Z,22.83
2017-10-16T03:40:33.622Z,22.8
2017-10-16T03:41:14.076Z,22.77
2017-10-16T03:41:54.534Z,22.78
2017-10-16T03:42:34.990Z,22.8
2017-10-16T03:43:15.444Z,22.84
2017-10-16T03:43:55.897Z,22.86
2017-10-16T03:44:36.353Z,22.83
2017-10-16T03:45:16.807Z,22.83
2017-10-16T03:45:57.265Z,22.84
2017-10-16T03:46:37.721Z,22.89
2017-10-16T03:47:18.178Z,22.91
2017-10-16T03:47:58.630Z,22.96
2017-10-16T03:48:39.088Z,22.89
2017-10-16T03:49:19.538Z,22.88
2017-10-16T03:49:59.992Z,22.83
2017-10-16T03:50:40.450Z,22.8
2017-10-16T03:51:20.901Z,22.84
2017-10-16T03:52:01.359Z,22.78
2017-10-16T03:52:41.815Z,22.81
2017-10-16T03:53:22.264Z,22.78
2017-10-16T03:54:02.717Z,22.8
2017-10-16T03:54:43.174Z,22.76
2017-10-16T03:55:23.647Z,22.81
2017-10-16T03:56:04.090Z,22.83
2017-10-16T03:56:44.548Z,22.81
2017-10-16T03:57:25.002Z,22.83
2017-10-16T03:58:05.448Z,22.77
2017-10-16T03:58:45.903Z,22.83
2017-10-16T03:59:26.349Z,22.81
2017-10-16T04:00:06.810Z,22.81
2017-10-16T04:00:47.262Z,22.86
2017-10-16T04:01:27.721Z,22.8
2017-10-16T04:02:08.175Z,22.78
2017-10-16T04:02:48.627Z,22.84
2017-10-16T04:03:29.071Z,22.88
2017-10-16T04:04:09.534Z,22.89
2017-10-16T04:04:49.986Z,22.89
2017-10-16T04:05:30.454Z,22.92
2017-10-16T04:06:10.893Z,22.88
2017-10-16T04:06:51.336Z,22.92
2017-10-16T04:07:31.779Z,22.92
2017-10-16T04:08:12.241Z,22.96
2017-10-16T04:08:52.699Z,22.95
2017-10-16T04:09:33.139Z,23.01
2017-10-16T04:10:13.580Z,22.93
2017-10-16T04:10:54.031Z,23.06
2017-10-16T04:11:34.488Z,23.02
2017-10-16T04:12:14.944Z,22.96
2017-10-16T04:12:55.398Z,22.95
2017-10-16T04:13:35.858Z,23.06
2017-10-16T04:14:16.305Z,22.99
2017-10-16T04:14:56.757Z,22.99
2017-10-16T04:15:37.205Z,23.06
2017-10-16T04:16:17.646Z,22.98
2017-10-16T04:16:58.093Z,23.02
2017-10-16T04:17:38.543Z,22.98
2017-10-16T04:18:18.969Z,23.08
2017-10-16T04:18:59.418Z,23.08
2017-10-16T04:19:39.877Z,23.14
2017-10-16T04:20:20.335Z,23.06
2017-10-16T04:21:00.789Z,23.17
2017-10-16T04:21:41.252Z,23.23
2017-10-16T04:22:21.701Z,23.14
2017-10-16T04:23:02.155Z,23.14
2017-10-16T04:23:42.615Z,23.17
2017-10-16T04:24:23.064Z,23.25
2017-10-16T04:25:03.511Z,23.2
2017-10-16T04:25:43.963Z,23.25
2017-10-16T04:26:24.408Z,23.25
2017-10-16T04:27:04.856Z,23.21
2017-10-16T04:27:45.312Z,23.26
2017-10-16T04:28:25.760Z,23.33
2017-10-16T04:29:06.221Z,23.32
2017-10-16T04:29:46.677Z,23.29
2017-10-16T04:30:27.136Z,23.26
2017-10-16T04:31:07.600Z,23.29
2017-10-16T04:31:48.049Z,23.34
2017-10-16T04:32:28.495Z,23.32
2017-10-16T04:33:08.963Z,23.28
2017-10-16T04:33:49.417Z,23.28
2017-10-16T04:34:29.886Z,23.26
2017-10-16T04:35:10.335Z,23.32
2017-10-16T04:35:50.789Z,23.26
2017-10-16T04:36:31.236Z,23.28
2017-10-16T04:37:11.704Z,23.33
2017-10-16T04:37:52.144Z,23.21
2017-10-16T04:38:32.591Z,23.25
2017-10-16T04:39:13.036Z,23.32
2017-10-16T04:39:53.482Z,23.33
2017-10-16T04:40:33.928Z,23.29
2017-10-16T04:41:14.373Z,23.32
2017-10-16T04:41:54.836Z,23.21
2017-10-16T04:42:35.282Z,23.29
2017-10-16T04:43:15.734Z,23.25
2017-10-16T04:43:56.194Z,23.2
2017-10-16T04:44:36.649Z,23.25
2017-10-16T04:45:17.103Z,23.28
2017-10-16T04:45:57.561Z,23.25
2017-10-16T04:46:38.004Z,23.16
2017-10-16T04:47:18.463Z,23.14
2017-10-16T04:47:58.909Z,23.16
2017-10-16T04:48:39.360Z,23.16
2017-10-16T04:49:19.810Z,23.16
2017-10-16T04:50:00.281Z,23.18
2017-10-16T04:50:40.732Z,23.2
2017-10-16T04:51:21.193Z,23.14
2017-10-16T04:52:01.647Z,23.14
2017-10-16T04:52:42.096Z,23.1
2017-10-16T04:53:22.568Z,23.16
2017-10-16T04:54:03.004Z,23.17
2017-10-16T04:54:43.450Z,23.23
2017-10-16T04:55:23.897Z,23.2
2017-10-16T04:56:04.353Z,23.18
2017-10-16T04:56:44.829Z,23.13
2017-10-16T04:57:25.258Z,23.11
2017-10-16T04:58:05.708Z,23.1
2017-10-16T04:58:46.159Z,23.13
2017-10-16T04:59:26.611Z,23.21
2017-10-16T05:00:07.069Z,23.16
2017-10-16T05:00:47.523Z,23.14
2017-10-16T05:01:27.974Z,23.11
2017-10-16T05:02:08.435Z,23.14
2017-10-16T05:02:48.888Z,23.16
2017-10-16T05:03:29.342Z,23.07
2017-10-16T05:04:09.800Z,23.1
2017-10-16T05:04:50.257Z,23.18
2017-10-16T05:05:30.716Z,23.14
2017-10-16T05:06:11.178Z,23.17
2017-10-16T05:06:51.642Z,23.17
2017-10-16T05:07:32.084Z,23.18
2017-10-16T05:08:12.537Z,23.21
2017-10-16T05:08:53.009Z,23.17
2017-10-16T05:09:33.461Z,23.17
2017-10-16T05:10:13.917Z,23.17
2017-10-16T05:10:54.377Z,23.17
2017-10-16T05:11:34.833Z,23.08
2017-10-16T05:12:15.294Z,23.2
2017-10-16T05:12:55.746Z,23.23
2017-10-16T05:13:36.186Z,23.13
2017-10-16T05:14:16.633Z,23.16
2017-10-16T05:14:57.099Z,23.18
2017-10-16T05:15:37.552Z,23.07
2017-10-16T05:16:18.001Z,23.14
2017-10-16T05:16:58.461Z,23.11
2017-10-16T05:17:38.924Z,23.14
2017-10-16T05:18:19.374Z,23.14
2017-10-16T05:18:59.821Z,23.11
2017-10-16T05:19:40.283Z,23.16
2017-10-16T05:20:20.734Z,23.1
2017-10-16T05:21:01.186Z,23.11
2017-10-16T05:21:41.643Z,23.11
2017-10-16T05:22:22.096Z,23.06
2017-10-16T05:23:02.550Z,23.11
2017-10-16T05:23:43.020Z,23.08
2017-10-16T05:24:23.475Z,23.11
2017-10-16T05:25:03.924Z,23.06
2017-10-16T05:25:44.384Z,23.01
2017-10-16T05:26:24.843Z,23.04
2017-10-16T05:27:05.311Z,23.06
2017-10-16T05:27:45.752Z,23.01
2017-10-16T05:28:26.210Z,23.02
2017-10-16T05:29:06.671Z,23.01
2017-10-16T05:29:47.134Z,23.02
2017-10-16T05:30:27.588Z,23.01
2017-10-16T05:31:08.034Z,23.08
2017-10-16T05:31:48.496Z,22.99
2017-10-16T05:32:28.943Z,23.1
2017-10-16T05:33:09.397Z,22.96
2017-10-16T05:33:49.853Z,23.02
2017-10-16T05:34:30.307Z,23.02
2017-10-16T05:35:10.766Z,23.06
2017-10-16T05:35:51.223Z,23.01
2017-10-16T05:36:31.685Z,23.01
2017-10-16T05:37:12.138Z,23.01
2017-10-16T05:37:52.585Z,23.06
2017-10-16T05:38:33.040Z,22.99
2017-10-16T05:39:13.494Z,23.06
2017-10-16T05:39:53.973Z,23.02
2017-10-16T05:40:34.419Z,23.01
2017-10-16T05:41:14.899Z,22.99
2017-10-16T05:41:55.341Z,23.01
2017-10-16T05:42:35.791Z,23.04
2017-10-16T05:43:16.244Z,22.96
2017-10-16T05:43:56.687Z,22.96
2017-10-16T05:44:37.126Z,22.98
2017-10-16T05:45:17.588Z,22.95
2017-10-16T05:45:58.031Z,23.06
2017-10-16T05:46:38.504Z,23.02
2017-10-16T05:47:18.961Z,23.01
2017-10-16T05:47:59.417Z,23.02
2017-10-16T05:48:39.867Z,22.93
2017-10-16T05:49:20.325Z,22.99
2017-10-16T05:50:00.775Z,23.01
2017-10-16T05:50:41.232Z,22.98
2017-10-16T05:51:21.689Z,23.01
2017-10-16T05:52:02.140Z,22.99
2017-10-16T05:52:42.589Z,22.99
2017-10-16T05:53:23.035Z,22.96
2017-10-16T05:54:03.482Z,22.96
2017-10-16T05:54:43.955Z,22.99
2017-10-16T05:55:24.409Z,22.99
2017-10-16T05:56:04.871Z,23.01
2017-10-16T05:56:45.312Z,22.93
2017-10-16T05:57:25.794Z,22.91
2017-10-16T05:58:06.217Z,23.01
2017-10-16T05:58:46.677Z,22.98
2017-10-16T05:59:27.128Z,22.98
2017-10-16T06:00:07.581Z,22.98
2017-10-16T06:00:48.041Z,23.01
2017-10-16T06:01:28.491Z,22.95
2017-10-16T06:02:08.950Z,23.01
2017-10-16T06:02:49.412Z,23.02
2017-10-16T06:03:29.860Z,22.96
2017-10-16T06:04:10.316Z,22.98
2017-10-16T06:04:50.776Z,22.96
2017-10-16T06:05:31.233Z,22.96
2017-10-16T06:06:11.686Z,22.95
2017-10-16T06:06:52.141Z,22.99
2017-10-16T06:07:32.598Z,22.98
2017-10-16T06:08:13.062Z,22.98
2017-10-16T06:08:53.520Z,22.98
2017-10-16T06:09:33.983Z,22.99
2017-10-16T06:10:14.452Z,23.01
2017-10-16T06:10:54.896Z,23.06
2017-10-16T06:11:35.349Z,23.02
2017-10-16T06:12:15.798Z,23.01
2017-10-16T06:12:56.248Z,22.98
2017-10-16T06:13:36.702Z,22.98
2017-10-16T06:14:17.149Z,23.04
2017-10-16T06:14:57.607Z,22.96
2017-10-16T06:15:38.057Z,23.02
2017-10-16T06:16:18.498Z,22.99
2017-10-16T06:16:58.943Z,23.01
2017-10-16T06:17:39.395Z,23.02
2017-10-16T06:18:19.846Z,22.98
2017-10-16T06:19:00.299Z,22.96
2017-10-16T06:19:40.754Z,23.01
2017-10-16T06:20:21.206Z,23.02
2017-10-16T06:21:01.648Z,23.02
2017-10-16T06:21:42.112Z,23.06
2017-10-16T06:22:22.578Z,23.06
2017-10-16T06:23:03.038Z,23.07
2017-10-16T06:23:43.489Z,23.04
2017-10-16T06:24:23.938Z,23.06
2017-10-16T06:25:04.404Z,22.99
2017-10-16T06:25:44.869Z,22.99
2017-10-16T06:26:25.323Z,23.08
2017-10-16T06:27:05.772Z,22.99
2017-10-16T06:27:46.236Z,22.98
2017-10-16T06:28:26.681Z,23.04
2017-10-16T06:29:07.143Z,23.02
2017-10-16T06:29:47.587Z,22.95
2017-10-16T06:30:28.028Z,23.02
2017-10-16T06:31:08.483Z,22.96
2017-10-16T06:31:48.929Z,23.01
2017-10-16T06:32:29.389Z,23.04
2017-10-16T06:33:09.855Z,23.06
2017-10-16T06:33:50.313Z,23.04
2017-10-16T06:34:30.793Z,23.11
2017-10-16T06:35:11.218Z,23.01
2017-10-16T06:35:51.677Z,23.06
2017-10-16T06:36:32.125Z,23.02
2017-10-16T06:37:12.584Z,23.13
2017-10-16T06:37:53.042Z,23.08
2017-10-16T06:38:33.497Z,23.11
2017-10-16T06:39:13.953Z,23.14
2017-10-16T06:39:54.408Z,23.17
2017-10-16T06:40:34.864Z,23.11
2017-10-16T06:41:15.330Z,23.1
2017-10-16T06:41:55.780Z,23.13
2017-10-16T06:42:36.232Z,23.14
2017-10-16T06:43:16.735Z,23.1
2017-10-16T06:43:57.190Z,23.13
2017-10-16T06:44:37.640Z,23.14
2017-10-16T06:45:18.097Z,23.13
2017-10-16T06:45:58.551Z,23.13
2017-10-16T06:46:38.993Z,23.13
2017-10-16T06:47:19.459Z,23.2
2017-10-16T06:47:59.906Z,23.13
2017-10-16T06:48:40.371Z,23.25
2017-10-16T06:49:20.817Z,23.16
2017-10-16T06:50:01.278Z,23.23
2017-10-16T06:50:41.730Z,23.18
2017-10-16T06:51:22.199Z,23.32
2017-10-16T06:52:02.650Z,23.2
2017-10-16T06:52:43.106Z,23.26
2017-10-16T06:53:23.574Z,23.34
2017-10-16T06:54:04.043Z,23.21
2017-10-16T06:54:44.486Z,23.29
2017-10-16T06:55:24.938Z,23.32
2017-10-16T06:56:05.389Z,23.26
2017-10-16T06:56:45.852Z,23.28
2017-10-16T06:57:26.304Z,23.26
2017-10-16T06:58:06.763Z,23.32
2017-10-16T06:58:47.220Z,23.36
2017-10-16T06:59:27.670Z,23.39
2017-10-16T07:00:08.124Z,23.26
2017-10-16T07:00:48.589Z,23.26
2017-10-16T07:01:29.060Z,23.34
2017-10-16T07:02:09.501Z,23.39
2017-10-16T07:02:49.973Z,23.45
2017-10-16T07:03:30.411Z,23.44
2017-10-16T07:04:10.856Z,23.42
2017-10-16T07:04:51.323Z,23.47
2017-10-16T07:05:31.777Z,23.49
2017-10-16T07:06:12.233Z,23.52
2017-10-16T07:06:52.689Z,23.47
2017-10-16T07:07:33.164Z,23.55
2017-10-16T07:08:13.611Z,23.54
2017-10-16T07:08:54.054Z,23.58
2017-10-16T07:09:34.520Z,23.62
2017-10-16T07:10:14.964Z,23.55
2017-10-16T07:10:55.419Z,23.67
2017-10-16T07:11:35.873Z,23.7
2017-10-16T07:12:16.327Z,23.67
2017-10-16T07:12:56.793Z,23.74
2017-10-16T07:13:37.289Z,23.67
2017-10-16T07:14:17.733Z,23.7
2017-10-16T07:14:58.188Z,23.79
2017-10-16T07:15:38.641Z,23.76
2017-10-16T07:16:19.148Z,23.76
2017-10-16T07:16:59.625Z,23.73
2017-10-16T07:17:40.066Z,23.76
2017-10-16T07:18:20.530Z,23.89
2017-10-16T07:19:00.987Z,23.88
2017-10-16T07:19:41.456Z,23.85
2017-10-16T07:20:21.903Z,23.91
2017-10-16T07:21:02.351Z,23.92
2017-10-16T07:21:42.818Z,23.96
2017-10-16T07:22:23.268Z,24.01
2017-10-16T07:23:03.746Z,23.99
2017-10-16T07:23:44.201Z,23.91
2017-10-16T07:24:24.669Z,23.92
2017-10-16T07:25:05.122Z,23.92
2017-10-16T07:25:45.583Z,24.01
2017-10-16T07:26:26.031Z,24.07
2017-10-16T07:27:06.485Z,24.07
2017-10-16T07:27:46.939Z,23.99
2017-10-16T07:28:27.394Z,24.03
2017-10-16T07:29:07.854Z,24.09
2017-10-16T07:29:48.307Z,24.09
2017-10-16T07:30:28.760Z,24.18
2017-10-16T07:31:09.215Z,24.09
2017-10-16T07:31:49.693Z,24.19
2017-10-16T07:32:30.160Z,24.18
2017-10-16T07:33:10.621Z,24.14
2017-10-16T07:33:51.084Z,24.19
2017-10-16T07:34:31.549Z,24.24
2017-10-16T07:35:12.008Z,24.22
2017-10-16T07:35:52.468Z,24.25
2017-10-16T07:36:32.928Z,24.24
2017-10-16T07:37:13.381Z,24.31
2017-10-16T07:37:53.840Z,24.26
2017-10-16T07:38:34.295Z,24.31
2017-10-16T07:39:14.745Z,24.36
2017-10-16T07:39:55.197Z,24.32
2017-10-16T07:40:35.658Z,24.36
2017-10-16T07:41:16.111Z,24.41
2017-10-16T07:41:56.564Z,24.38
2017-10-16T07:42:37.022Z,24.38
2017-10-16T07:43:17.479Z,24.43
2017-10-16T07:43:57.944Z,24.44
2017-10-16T07:44:38.395Z,24.47
2017-10-16T07:45:18.840Z,24.41
2017-10-16T07:45:59.284Z,24.47
2017-10-16T07:46:39.744Z,24.48
2017-10-16T07:47:20.217Z,24.5
2017-10-16T07:48:00.653Z,24.58
2017-10-16T07:48:41.110Z,24.55
2017-10-16T07:49:21.568Z,24.53
2017-10-16T07:50:02.026Z,24.62
2017-10-16T07:50:42.485Z,24.55
2017-10-16T07:51:22.932Z,24.59
2017-10-16T07:52:03.383Z,24.68
2017-10-16T07:52:43.841Z,24.62
2017-10-16T07:53:24.284Z,24.68
2017-10-16T07:54:04.738Z,24.69
2017-10-16T07:54:45.179Z,24.65
2017-10-16T07:55:25.631Z,24.66
2017-10-16T07:56:06.087Z,24.74
2017-10-16T07:56:46.543Z,24.71
2017-10-16T07:57:27.001Z,24.75
2017-10-16T07:58:07.451Z,24.78
2017-10-16T07:58:47.908Z,24.86
2017-10-16T07:59:28.359Z,24.84
2017-10-16T08:00:08.796Z,24.88
2017-10-16T08:00:49.256Z,24.84
2017-10-16T08:01:29.709Z,24.89
2017-10-16T08:02:10.154Z,24.85
2017-10-16T08:02:50.613Z,24.93
2017-10-16T08:03:31.074Z,24.96
2017-10-16T08:04:11.518Z,25
2017-10-16T08:04:51.957Z,24.97
2017-10-16T08:05:32.413Z,24.96
2017-10-16T08:06:12.867Z,25.03
2017-10-16T08:06:53.310Z,24.96
2017-10-16T08:07:33.769Z,25
2017-10-16T08:08:14.223Z,25.04
2017-10-16T08:08:54.680Z,25.06
2017-10-16T08:09:35.145Z,25.03
2017-10-16T08:10:15.594Z,25.07
2017-10-16T08:10:56.050Z,25.11
2017-10-16T08:11:36.482Z,25.11
2017-10-16T08:12:16.927Z,25.15
2017-10-16T08:12:57.381Z,25.25
2017-10-16T08:13:37.839Z,25.25
2017-10-16T08:14:18.295Z,25.24
2017-10-16T08:14:58.750Z,25.24
2017-10-16T08:15:39.208Z,25.19
2017-10-16T08:16:19.665Z,25.29
2017-10-16T08:17:00.122Z,25.26
2017-10-16T08:17:40.573Z,25.22
2017-10-16T08:18:21.025Z,25.25
2017-10-16T08:19:01.471Z,25.24
2017-10-16T08:19:41.934Z,25.25
2017-10-16T08:20:22.390Z,25.43
2017-10-16T08:21:02.849Z,25.4
2017-10-16T08:21:43.319Z,25.39
2017-10-16T08:22:23.769Z,25.33
2017-10-16T08:23:04.219Z,25.43
2017-10-16T08:23:44.676Z,25.49
2017-10-16T08:24:25.129Z,25.52
2017-10-16T08:25:05.591Z,25.44
2017-10-16T08:25:46.031Z,25.54
2017-10-16T08:26:26.471Z,25.46
2017-10-16T08:27:06.926Z,25.52
2017-10-16T08:27:47.382Z,25.61
2017-10-16T08:28:27.833Z,25.59
2017-10-16T08:29:08.295Z,25.56
2017-10-16T08:29:48.737Z,25.56
2017-10-16T08:30:29.201Z,25.63
2017-10-16T08:31:09.655Z,25.61
2017-10-16T08:31:50.103Z,25.63
2017-10-16T08:32:30.565Z,25.59
2017-10-16T08:33:11.014Z,25.61
2017-10-16T08:33:51.474Z,25.59
2017-10-16T08:34:31.914Z,25.67
2017-10-16T08:35:12.371Z,25.59
2017-10-16T08:35:52.822Z,25.62
2017-10-16T08:36:33.291Z,25.73
2017-10-16T08:37:13.737Z,25.67
2017-10-16T08:37:54.191Z,25.63
2017-10-16T08:38:34.643Z,25.7
2017-10-16T08:39:15.115Z,25.7
2017-10-16T08:39:55.567Z,25.74
2017-10-16T08:40:36.025Z,25.8
2017-10-16T08:41:16.480Z,25.78
2017-10-16T08:41:56.946Z,25.81
2017-10-16T08:42:37.396Z,25.78
2017-10-16T08:43:17.859Z,25.86
2017-10-16T08:43:58.314Z,25.88
2017-10-16T08:44:38.770Z,25.83